Latest Weather Observations for Yarram Airport

IDV60801

Issued at 12:32 pm EDT Tuesday 20 February 2018 (issued every 30 minutes, with the page automatically refreshed every 10 minutes)

About weather observations | Map of weather stations | Latest weather observations for VIC | Other Formats
Station Details ID: 085151 Name: YARRAM AIRPORT Lat: -38.56 Lon: 146.75 Height: 17.9 m
Data from the previous 72 hours. | See also: Recent months at Yarram Airport
Date/Time
EDT
Temp
°C
App
Temp
°C
Dew
Point
°C
Rel
Hum
%
Delta-T
°C
Wind Press
QNH
hPa
Press
MSL
hPa
Rain since
9am
mm
Dir  Spd
km/h
Gust
km/h
Spd
kts
Gust
kts
20/12:30pm 19.7 14.3 9.6 52 5.4 ENE 28 41 15 22 1021.7 1021.7 0.0
20/12:00pm 20.5 14.9 8.8 47 6.1 ENE 28 43 15 23 1021.7 1021.7 0.0
20/11:30am 19.8 14.2 8.8 49 5.8 ENE 28 43 15 23 1021.9 1021.9 0.0
20/11:00am 20.4 14.4 8.7 47 6.1 ENE 30 43 16 23 1021.9 1021.9 0.0
20/10:37am 19.4 13.6 8.1 48 5.8 E 28 46 15 25 1022.0 1022.0 0.0
20/10:30am 19.5 13.8 8.2 48 5.8 ENE 28 41 15 22 1022.0 1022.0 0.0
20/10:00am 19.0 13.7 8.6 51 5.4 E 26 41 14 22 1022.2 1022.2 0.0
20/09:30am 18.3 13.0 8.6 53 5.0 ENE 26 37 14 20 1022.4 1022.4 0.0
20/09:00am 17.8 12.8 9.4 58 4.4 E 26 35 14 19 1022.5 1022.5 0.0
20/08:30am 17.5 13.2 9.4 59 4.2 E 22 30 12 16 1022.6 1022.6 0.0
20/08:00am 17.3 13.7 9.7 61 4.0 E 19 30 10 16 1022.4 1022.4 0.0
20/07:30am 16.8 14.1 8.8 59 4.1 E 13 20 7 11 1022.4 1022.4 0.0
20/07:00am 16.4 13.1 8.1 58 4.2 ENE 15 20 8 11 1022.2 1022.2 0.0
20/06:30am 16.3 12.6 8.0 58 4.2 E 17 26 9 14 1022.0 1022.0 0.0
20/06:00am 16.3 13.1 8.3 59 4.0 E 15 22 8 12 1021.9 1021.9 0.0
20/05:30am 16.0 12.5 8.7 62 3.7 E 17 26 9 14 1021.8 1021.8 0.0
20/05:00am 16.3 12.7 9.7 65 3.4 E 19 28 10 15 1021.6 1021.6 0.0
20/04:30am 15.2 12.5 8.9 66 3.2 ENE 13 22 7 12 1021.5 1021.5 0.0
20/04:00am 15.9 13.1 8.4 61 3.8 ENE 13 20 7 11 1021.6 1021.6 0.0
20/03:30am 16.6 12.5 7.8 56 4.4 E 19 26 10 14 1021.8 1021.8 0.0
20/03:00am 16.7 12.4 7.9 56 4.4 E 20 32 11 17 1021.7 1021.7 0.0
20/02:30am 16.7 12.3 8.9 60 4.0 E 22 33 12 18 1021.5 1021.5 0.0
20/02:00am 15.9 13.0 9.6 66 3.3 ENE 15 24 8 13 1021.7 1021.7 0.0
20/01:30am 15.9 11.7 8.4 61 3.8 E 20 32 11 17 1021.7 1021.7 0.0
20/01:00am 16.0 11.9 8.7 62 3.7 E 20 30 11 16 1021.7 1021.7 0.0
20/12:30am 16.2 11.4 8.9 62 3.7 E 24 35 13 19 1021.5 1021.5 0.0
20/12:00am 16.5 11.8 9.4 63 3.7 E 24 37 13 20 1021.6 1021.6 0.0
 
Date/Time
EDT
Temp
°C
App
Temp
°C
Dew
Point
°C
Rel
Hum
%
Delta-T
°C
Wind Press
QNH
hPa
Press
MSL
hPa
Rain since
9am
mm
Dir  Spd
km/h
Gust
km/h
Spd
kts
Gust
kts
19/11:30pm 16.6 12.4 9.8 64 3.6 E 22 39 12 21 1021.7 1021.7 0.0
19/11:00pm 16.5 12.0 9.9 65 3.5 E 24 35 13 19 1022.0 1022.0 0.0
19/10:30pm 17.0 12.2 10.4 65 3.5 E 26 37 14 20 1022.1 1022.1 0.0
19/10:20pm 17.1 11.6 10.5 65 3.5 E 30 48 16 26 1022.1 1022.1 0.0
19/10:00pm 17.1 12.1 10.9 67 3.3 E 28 43 15 23 1021.9 1021.9 0.0
19/09:48pm 17.2 11.8 11.0 67 3.3 E 30 50 16 27 1022.0 1022.0 0.0
19/09:30pm 17.2 11.6 11.5 69 3.1 ESE 32 44 17 24 1021.8 1021.8 0.0
19/09:13pm 17.3 12.4 11.3 68 3.3 E 28 46 15 25 1021.6 1021.6 0.0
19/09:00pm 17.4 12.1 11.4 68 3.2 E 30 43 16 23 1021.4 1021.4 0.0
19/08:30pm 17.6 13.3 11.9 69 3.1 E 26 39 14 21 1021.0 1021.0 0.0
19/08:00pm 17.7 13.8 12.2 70 3.0 E 24 39 13 21 1020.9 1020.9 0.0
19/07:30pm 17.8 13.1 12.0 69 3.2 ESE 28 43 15 23 1020.7 1020.7 0.0
19/07:00pm 18.0 14.1 12.2 69 3.2 ESE 24 39 13 21 1020.3 1020.3 0.0
19/06:53pm 18.0 13.0 12.2 69 3.2 ESE 30 48 16 26 1020.3 1020.3 0.0
19/06:30pm 18.1 12.8 12.5 70 3.1 E 32 44 17 24 1020.2 1020.2 0.0
19/06:06pm 18.3 13.0 13.0 71 3.0 E 33 52 18 28 1020.1 1020.1 0.0
19/06:00pm 18.4 13.7 13.3 72 2.9 E 30 44 16 24 1020.1 1020.1 0.0
19/05:30pm 19.0 13.5 13.6 71 3.1 ESE 35 46 19 25 1020.0 1020.0 0.0
19/05:00pm 18.8 13.9 13.6 72 3.0 ESE 32 50 17 27 1019.8 1019.8 0.0
19/04:49pm 18.6 13.6 13.9 74 2.7 ESE 33 52 18 28 1019.8 1019.8 0.0
19/04:30pm 18.4 13.4 13.9 75 2.6 ESE 33 50 18 27 1019.8 1019.8 0.0
19/04:05pm 18.6 13.8 14.1 75 2.6 ESE 32 50 17 27 1019.6 1019.6 0.0
19/04:00pm 18.6 13.6 14.1 75 2.6 ESE 33 48 18 26 1019.6 1019.6 0.0
19/03:49pm 18.9 15.0 14.4 75 2.6 ESE 28 48 15 26 1019.4 1019.4 0.0
19/03:30pm 18.3 14.2 14.8 80 2.0 E 30 46 16 25 1019.4 1019.4 0.0
19/03:00pm 19.2 15.0 14.7 75 2.6 ESE 30 46 16 25 1019.2 1019.2 0.0
19/02:30pm 19.2 14.5 14.9 76 2.5 ESE 33 48 18 26 1019.1 1019.1 0.0
19/02:00pm 18.8 14.7 14.9 78 2.3 E 30 43 16 23 1019.0 1019.0 0.0
19/01:30pm 18.8 14.1 14.9 78 2.3 E 33 50 18 27 1018.9 1018.9 0.0
19/01:00pm 18.5 14.4 14.8 79 2.1 ESE 30 46 16 25 1018.8 1018.8 0.0
19/12:30pm 18.7 14.6 15.0 79 2.2 ESE 30 43 16 23 1018.8 1018.8 0.0
19/12:00pm 18.4 14.0 15.1 81 1.9 ESE 32 43 17 23 1018.9 1018.9 0.0
19/11:30am 18.4 13.9 15.5 83 1.7 ESE 33 44 18 24 1018.8 1018.8 0.0
19/11:00am 18.1 14.2 15.5 85 1.5 ESE 30 46 16 25 1018.7 1018.7 0.0
19/10:36am 17.9 13.9 15.3 85 1.5 ESE 30 48 16 26 1018.6 1018.6 0.0
19/10:30am 18.0 15.0 15.8 87 1.3 ESE 26 39 14 21 1018.6 1018.6 0.0
19/10:00am 17.5 13.2 15.8 90 1.0 ESE 33 46 18 25 1018.5 1018.5 0.0
19/09:30am 17.7 13.9 16.7 94 0.6 ESE 32 44 17 24 1018.2 1018.2 0.0
19/09:20am 17.5 14.5 16.7 95 0.5 ESE 28 46 15 25 1018.0 1018.0 0.0
19/09:00am 17.5 14.2 17.0 97 0.3 ESE 30 37 16 20 1017.8 1017.8 4.2
19/08:44am 17.0 13.9 16.5 97 0.3 ESE 28 46 15 25 1017.7 1017.7 4.2
19/08:30am 17.3 13.9 16.8 97 0.3 ESE 30 43 16 23 1017.5 1017.5 4.0
19/08:00am 17.7 16.5 17.5 99 0.1 ESE 20 33 11 18 1017.0 1017.0 4.0
19/07:30am 16.8 17.7 16.6 99 0.1 ESE 7 13 4 7 1016.8 1016.8 4.0
19/07:00am 16.3 17.0 16.0 98 0.2 ESE 7 11 4 6 1016.6 1016.6 4.0
19/06:30am 16.2 16.5 15.9 98 0.2 E 9 11 5 6 1016.1 1016.1 4.0
19/06:00am 16.7 17.2 16.5 99 0.1 ESE 9 13 5 7 1015.8 1015.8 4.0
19/05:30am 16.9 19.2 16.7 99 0.1 CALM 0 6 0 3 1015.9 1015.9 3.8
19/05:00am 16.7 18.9 16.5 99 0.1 CALM 0 0 0 0 1015.7 1015.7 3.6
19/04:30am 16.7 18.9 16.4 98 0.2 CALM 0 0 0 0 1015.7 1015.7 3.2
19/04:00am 16.8 18.6 16.5 98 0.2 NW 2 6 1 3 1015.6 1015.6 2.0
19/03:30am 16.9 17.4 16.6 98 0.2 WNW 9 11 5 6 1015.9 1015.9 0.8
19/03:00am 16.8 18.9 16.3 97 0.3 CALM 0 0 0 0 1015.8 1015.8 0.4
19/02:30am 16.8 18.9 16.2 96 0.4 CALM 0 0 0 0 1015.6 1015.6 0.4
19/02:00am 16.6 18.4 15.6 94 0.6 CALM 0 0 0 0 1015.9 1015.9 0.2
19/01:30am 16.7 18.5 15.4 92 0.8 CALM 0 0 0 0 1016.1 1016.1 0.2
19/01:00am 17.3 19.0 15.3 88 1.2 CALM 0 0 0 0 1016.2 1016.2 0.0
19/12:30am 17.4 19.0 15.0 86 1.4 CALM 0 0 0 0 1016.4 1016.4 0.0
19/12:00am 17.9 19.6 15.2 84 1.6 CALM 0 0 0 0 1016.4 1016.4 0.0
 
Date/Time
EDT
Temp
°C
App
Temp
°C
Dew
Point
°C
Rel
Hum
%
Delta-T
°C
Wind Press
QNH
hPa
Press
MSL
hPa
Rain since
9am
mm
Dir  Spd
km/h
Gust
km/h
Spd
kts
Gust
kts
18/11:30pm 17.8 19.5 15.1 84 1.6 CALM 0 0 0 0 1016.2 1016.2 0.0
18/11:00pm 17.7 19.4 15.1 85 1.5 CALM 0 0 0 0 1015.9 1015.9 0.0
18/10:30pm 17.6 19.2 15.0 85 1.5 CALM 0 0 0 0 1015.9 1015.9 0.0
18/10:00pm 17.8 19.3 14.7 82 1.8 CALM 0 0 0 0 1015.8 1015.8 0.0
18/09:30pm 17.8 17.9 14.5 81 1.9 NE 7 9 4 5 1015.3 1015.3 0.0
18/09:00pm 18.6 19.1 15.1 80 2.0 ESE 6 9 3 5 1015.3 1015.3 0.0
18/08:30pm 18.6 18.5 14.9 79 2.2 ESE 9 11 5 6 1015.0 1015.0 0.0
18/08:00pm 18.8 17.9 14.9 78 2.3 SE 13 15 7 8 1014.6 1014.6 0.0
18/07:30pm 19.2 18.7 14.9 76 2.5 SE 11 13 6 7 1014.4 1014.4 0.0
18/07:00pm 19.5 18.2 14.7 74 2.8 SSE 15 17 8 9 1013.8 1013.8 0.0
18/06:30pm 19.6 17.8 14.4 72 3.0 SSE 17 20 9 11 1013.5 1013.5 0.0
18/06:00pm 20.0 18.3 14.6 71 3.1 SE 17 24 9 13 1013.3 1013.3 0.0
18/05:30pm 20.5 19.2 14.8 70 3.3 SSE 15 20 8 11 1013.2 1013.2 0.0
18/05:00pm 20.0 17.9 14.6 71 3.2 SSE 19 22 10 12 1013.1 1013.1 0.0
18/04:30pm 20.6 18.3 14.0 66 3.8 SSE 19 22 10 12 1013.0 1013.0 0.0
18/04:00pm 21.5 19.1 13.9 62 4.4 SSE 19 28 10 15 1013.0 1013.0 0.0
18/03:30pm 22.9 21.6 13.7 56 5.4 SSE 13 20 7 11 1012.9 1012.9 0.0
18/03:00pm 21.3 18.5 13.2 60 4.6 SSE 20 26 11 14 1013.2 1013.2 0.0
18/02:30pm 22.7 20.6 13.5 56 5.3 SE 17 26 9 14 1013.0 1013.0 0.0
18/02:00pm 22.7 19.6 13.5 56 5.3 SSE 22 39 12 21 1013.2 1013.2 0.0
18/01:30pm 23.3 21.0 14.0 56 5.4 SE 19 30 10 16 1013.0 1013.0 0.0
18/01:00pm 22.8 20.6 14.4 59 4.9 SE 19 26 10 14 1013.0 1013.0 0.0
18/12:30pm 23.8 21.9 14.2 55 5.7 SE 17 28 9 15 1013.0 1013.0 0.0
18/12:00pm 24.0 23.5 12.6 49 6.5 SSW 7 13 4 7 1013.0 1013.0 0.0
18/11:30am 23.2 22.8 13.1 53 5.8 ESE 7 13 4 7 1013.0 1013.0 0.0
18/11:00am 22.4 21.5 12.6 54 5.6 NNE 9 15 5 8 1013.0 1013.0 0.0
18/10:30am 21.1 21.8 13.5 62 4.4 SW 2 7 1 4 1013.1 1013.1 0.0
18/10:00am 19.9 19.6 13.4 66 3.7 SW 7 13 4 7 1013.3 1013.3 0.0
18/09:30am 18.9 18.7 13.7 72 3.0 SSW 7 13 4 7 1013.2 1013.2 0.0
18/09:00am 18.1 17.5 13.4 74 2.7 W 9 11 5 6 1013.3 1013.3 0.0
18/08:30am 16.7 17.3 15.9 95 0.5 NW 7 9 4 5 1013.1 1013.1 0.0
18/08:00am 13.1 14.1 13.1 100 0.0 CALM 0 0 0 0 1012.9 1012.9 0.0
18/07:30am 10.2 10.3 10.2 100 0.0 CALM 0 0 0 0 1012.5 1012.5 0.0
18/07:00am 10.0 10.0 9.9 99 0.1 CALM 0 0 0 0 1012.5 1012.5 0.0
18/06:30am 10.0 10.0 9.9 99 0.1 CALM 0 0 0 0 1012.1 1012.1 0.0
18/06:00am 9.2 9.0 8.9 98 0.1 CALM 0 0 0 0 1012.2 1012.2 0.0
18/05:30am 9.3 9.1 9.0 98 0.1 CALM 0 0 0 0 1012.3 1012.3 0.0
18/05:00am 10.1 10.1 9.8 98 0.2 CALM 0 0 0 0 1012.2 1012.2 0.0
18/04:30am 9.6 9.4 9.1 97 0.2 CALM 0 0 0 0 1012.1 1012.1 0.0
18/04:00am 9.7 9.5 9.2 97 0.2 CALM 0 0 0 0 1012.1 1012.1 0.0
18/03:30am 10.8 10.2 10.3 97 0.3 WNW 4 6 2 3 1012.3 1012.3 0.0
18/03:00am 9.9 8.0 9.1 95 0.4 NNW 9 9 5 5 1012.4 1012.4 0.0
18/02:30am 11.2 10.0 10.3 94 0.5 NW 7 9 4 5 1012.6 1012.6 0.0
18/02:00am 11.5 10.0 10.4 93 0.6 WNW 9 9 5 5 1012.9 1012.9 0.0
18/01:30am 12.0 12.2 10.7 92 0.7 CALM 0 7 0 4 1013.2 1013.2 0.0
18/01:00am 12.9 13.0 11.6 92 0.7 W 2 7 1 4 1013.4 1013.4 0.0
18/12:30am 13.5 12.1 12.2 92 0.7 NE 11 13 6 7 1013.2 1013.2 0.0
18/12:00am 13.0 11.4 11.4 90 0.8 NNE 11 11 6 6 1013.3 1013.3 0.0
 
Date/Time
EDT
Temp
°C
App
Temp
°C
Dew
Point
°C
Rel
Hum
%
Delta-T
°C
Wind Press
QNH
hPa
Press
MSL
hPa
Rain since
9am
mm
Dir  Spd
km/h
Gust
km/h
Spd
kts
Gust
kts
17/11:30pm 13.0 11.7 11.1 88 1.0 NNE 9 11 5 6 1013.3 1013.3 0.0
17/11:00pm 13.4 11.7 11.1 86 1.2 NNE 11 13 6 7 1013.5 1013.5 0.0
17/10:30pm 12.2 10.1 9.6 84 1.3 N 11 13 6 7 1013.7 1013.7 0.0
17/10:00pm 12.6 10.5 9.6 82 1.5 N 11 13 6 7 1013.7 1013.7 0.0
17/09:30pm 13.6 12.2 9.6 77 2.0 N 7 9 4 5 1013.6 1013.6 0.0
17/09:00pm 15.6 14.4 10.4 71 2.7 WNW 7 11 4 6 1013.1 1013.1 0.0
17/08:30pm 16.8 14.3 10.9 68 3.2 SW 15 20 8 11 1012.8 1012.8 0.0
17/08:00pm 18.4 16.1 10.3 59 4.3 WSW 13 17 7 9 1012.7 1012.7 0.0
17/07:30pm 19.3 15.7 10.6 57 4.7 SW 20 28 11 15 1012.4 1012.4 0.0
17/07:00pm 20.4 17.2 11.9 58 4.7 SW 20 26 11 14 1012.2 1012.2 0.0
17/06:30pm 21.8 18.8 12.4 55 5.3 SW 20 26 11 14 1012.0 1012.0 0.0
17/06:00pm 22.3 20.5 13.4 57 5.1 S 15 22 8 12 1011.7 1011.7 0.0
17/05:30pm 21.4 18.8 13.3 60 4.6 SE 19 28 10 15 1011.5 1011.5 0.0
17/05:00pm 21.9 19.2 13.0 57 5.1 SE 19 24 10 13 1011.3 1011.3 0.0
17/04:30pm 22.0 19.9 12.5 54 5.4 SSE 15 20 8 11 1011.1 1011.1 0.0
17/04:00pm 22.9 19.6 12.8 53 5.8 S 22 30 12 16 1011.1 1011.1 0.0
17/03:30pm 23.3 20.1 12.0 49 6.4 SW 20 35 11 19 1010.8 1010.8 0.0
17/03:00pm 23.9 21.8 12.5 49 6.5 S 15 24 8 13 1011.0 1011.0 0.0
17/02:30pm 22.8 20.8 11.5 49 6.3 SSE 13 24 7 13 1011.5 1011.5 0.0
17/02:00pm 22.0 18.9 11.7 52 5.8 SE 19 26 10 14 1011.7 1011.7 0.0
17/01:30pm 22.5 19.9 11.9 51 6.0 SSE 17 22 9 12 1011.5 1011.5 0.0
17/01:00pm 22.5 18.7 11.3 49 6.2 S 22 30 12 16 1011.9 1011.9 0.0

Other Formats:

Comma delimited format used in spreadsheet applications
http://www.bom.gov.au/fwo/IDV60801/IDV60801.95890.axf

JavaScript Object Notation format (JSON) in row-major order
http://www.bom.gov.au/fwo/IDV60801/IDV60801.95890.json